Time;durP1;ratioP1;P1;durP2;ratioP2;P2;SDS_P1;SDS_P2;PMS_P1;PMS_P2;Temp;Humidity;BMP_temperature;BMP_pressure;BME280_temperature;BME280_humidity;BME280_pressure;Samples;Min_cycle;Max_cycle;Signal;HPM_P1;HPM_P2
2022/06/16 00:02:02;;;;;;;;;13.00;11.25;;;;;22.01;46.54;100874.31;5077835;28;46188;-72
2022/06/16 00:04:28;;;;;;;;;12.00;10.25;;;;;22.01;46.36;100873.47;5077512;27;45294;-71
2022/06/16 00:06:59;;;;;;;;;11.50;11.50;;;;;21.94;47.48;100873.13;5077006;28;45193;-77
2022/06/16 00:09:25;;;;;;;;;10.25;9.25;;;;;21.93;47.48;100879.47;5081767;27;45510;-76
2022/06/16 00:11:50;;;;;;;;;17.75;13.25;;;;;21.89;47.43;100883.38;5097697;27;46385;-75
2022/06/16 00:14:16;;;;;;;;;17.50;11.50;;;;;21.83;47.56;100881.22;5097876;27;45275;-70
2022/06/16 00:16:42;;;;;;;;;11.50;11.25;;;;;21.76;47.90;100880.03;5098300;27;45416;-77
2022/06/16 00:19:07;;;;;;;;;14.00;11.50;;;;;21.69;48.29;100877.88;5096736;27;45465;-71
2022/06/16 00:21:32;;;;;;;;;12.00;12.00;;;;;21.60;48.47;100878.59;5096808;27;48203;-69
2022/06/16 00:23:58;;;;;;;;;12.75;12.50;;;;;21.54;48.59;100889.81;5098200;27;45195;-70
2022/06/16 00:26:26;;;;;;;;;15.00;13.25;;;;;21.47;48.89;100883.25;5086919;27;45230;-70
2022/06/16 00:28:52;;;;;;;;;12.25;12.25;;;;;21.43;49.18;100888.88;5077585;28;45427;-80
2022/06/16 00:31:21;;;;;;;;;15.25;13.50;;;;;21.37;49.52;100886.69;5073972;28;46310;-76
2022/06/16 00:33:46;;;;;;;;;14.50;13.00;;;;;21.28;49.41;100879.41;5076880;27;45418;-77
2022/06/16 00:36:13;;;;;;;;;17.00;14.50;;;;;21.25;50.20;100888.53;5077372;27;45332;-77
2022/06/16 00:38:39;;;;;;;;;15.00;13.75;;;;;21.21;49.82;100900.44;5076936;27;45383;-74
2022/06/16 00:41:05;;;;;;;;;13.75;13.75;;;;;21.19;50.19;100899.72;5077543;27;46424;-69
2022/06/16 00:43:31;;;;;;;;;11.75;11.75;;;;;21.08;50.48;100883.69;5082867;27;45247;-70
2022/06/16 00:46:00;;;;;;;;;14.25;14.25;;;;;21.14;50.25;100899.25;5088851;28;45280;-72
2022/06/16 00:48:55;;;;;;;;;13.25;13.25;;;;;21.12;50.52;100907.38;5082028;27;45354;-75
2022/06/16 00:51:35;;;;;;;;;16.25;14.00;;;;;21.05;50.94;100911.50;5075842;28;47305;-71
2022/06/16 00:54:08;;;;;;;;;13.75;13.00;;;;;21.06;50.66;100918.56;5077339;27;45375;-75
2022/06/16 00:56:35;;;;;;;;;13.25;13.00;;;;;21.08;50.72;100915.78;5078108;27;45271;-74
2022/06/16 00:59:04;;;;;;;;;14.50;12.75;;;;;21.06;50.94;100923.91;5078097;28;45565;-75
2022/06/16 01:01:31;;;;;;;;;15.00;13.00;;;;;21.01;50.69;100921.63;5075904;28;47274;-71
2022/06/16 01:06:40;;;;;;;;;18.25;14.50;;;;;20.97;51.70;100922.84;5077263;28;45308;-75
2022/06/16 01:09:28;;;;;;;;;17.50;17.00;;;;;20.92;51.34;100922.34;5077220;27;45382;-70
2022/06/16 01:15:05;;;;;;;;;17.25;15.25;;;;;20.94;50.87;100938.25;5075317;28;45490;-72
2022/06/16 01:17:47;;;;;;;;;17.50;15.50;;;;;20.94;50.78;100938.25;5076493;28;45428;-72
2022/06/16 01:20:20;;;;;;;;;16.00;14.75;;;;;20.94;51.01;100947.13;5076624;28;45309;-73
2022/06/16 01:22:58;;;;;;;;;10.50;10.50;;;;;20.94;51.11;100943.59;5076982;27;45679;-73
2022/06/16 01:25:29;;;;;;;;;17.50;16.50;;;;;20.93;50.70;100941.91;5077281;28;45488;-74
2022/06/16 01:27:59;;;;;;;;;14.25;14.25;;;;;20.91;51.13;100951.88;5076299;28;45346;-74
2022/06/16 01:30:53;;;;;;;;;19.50;18.25;;;;;20.89;50.98;100951.13;5076178;27;45362;-73
2022/06/16 01:33:24;;;;;;;;;16.00;15.50;;;;;20.83;51.71;100947.13;5068840;27;45513;-72
2022/06/16 01:36:05;;;;;;;;;18.00;18.00;;;;;20.76;51.60;100953.91;5075994;27;45200;-74
2022/06/16 01:38:54;;;;;;;;;16.00;16.00;;;;;20.73;52.13;100958.50;5076112;27;45329;-72
2022/06/16 01:41:45;;;;;;;;;22.00;20.75;;;;;20.67;51.56;100955.44;5076037;27;45401;-72
2022/06/16 01:44:18;;;;;;;;;16.00;15.50;;;;;20.59;52.18;100964.03;5075787;27;45302;-72
2022/06/16 01:46:47;;;;;;;;;16.50;14.75;;;;;20.49;51.63;100947.88;5075980;27;45360;-72
2022/06/16 01:49:19;;;;;;;;;19.00;18.00;;;;;20.53;52.40;100956.50;5075708;28;45408;-72
2022/06/16 01:51:57;;;;;;;;;17.50;17.50;;;;;20.52;52.56;100969.03;5074995;27;45322;-71
2022/06/16 01:54:35;;;;;;;;;18.25;14.75;;;;;20.47;52.40;100960.50;5075716;27;45346;-73
2022/06/16 01:57:10;;;;;;;;;16.50;15.50;;;;;20.45;52.58;100967.78;5075549;27;45243;-73
2022/06/16 01:59:50;;;;;;;;;17.50;17.50;;;;;20.40;52.62;100986.81;5075740;27;45308;-71
2022/06/16 02:02:18;;;;;;;;;19.00;17.75;;;;;20.36;53.13;100976.50;5075754;28;45391;-71
2022/06/16 02:04:46;;;;;;;;;20.00;18.75;;;;;20.34;52.59;100983.78;5075704;28;46601;-72
2022/06/16 02:07:19;;;;;;;;;21.00;18.50;;;;;20.28;52.68;100983.28;5075539;28;45449;-72
2022/06/16 02:09:49;;;;;;;;;18.00;18.00;;;;;20.25;53.88;100980.84;5075471;27;45203;-69
2022/06/16 02:15:21;;;;;;;;;19.25;17.75;;;;;20.17;53.23;100993.91;5075402;28;45337;-71
2022/06/16 02:17:46;;;;;;;;;17.50;17.50;;;;;20.14;53.66;100992.31;5075276;27;45341;-70
2022/06/16 02:20:12;;;;;;;;;20.00;17.00;;;;;20.13;53.50;100989.72;5073959;28;45377;-73
2022/06/16 02:22:37;;;;;;;;;20.00;20.00;;;;;20.10;54.00;100989.97;5075748;27;45321;-72
2022/06/16 02:25:03;;;;;;;;;23.00;20.00;;;;;20.06;53.42;100992.03;5075048;28;45444;-72
2022/06/16 02:27:28;;;;;;;;;20.00;20.00;;;;;20.05;54.15;100984.09;5075021;27;45242;-71
2022/06/16 02:29:54;;;;;;;;;21.75;21.75;;;;;20.04;54.04;100979.72;5075153;27;45284;-71
2022/06/16 02:32:55;;;;;;;;;19.50;19.50;;;;;20.03;53.97;100983.38;5075161;28;45397;-72
2022/06/16 02:35:39;;;;;;;;;21.50;19.75;;;;;20.01;53.68;100980.84;5074878;27;45343;-71
2022/06/16 02:38:23;;;;;;;;;20.25;18.25;;;;;20.00;53.86;100987.13;5074980;28;45345;-69
2022/06/16 02:41:05;;;;;;;;;20.50;19.25;;;;;19.96;54.38;100988.34;5075005;28;45379;-71
2022/06/16 02:44:12;;;;;;;;;22.25;20.00;;;;;19.98;54.21;100992.56;5075241;27;45412;-71
2022/06/16 02:46:51;;;;;;;;;19.50;19.50;;;;;19.95;54.51;100990.13;5051123;27;46554;-71
2022/06/16 02:49:30;;;;;;;;;21.25;21.25;;;;;19.94;54.03;100998.28;5073499;28;45398;-72
2022/06/16 02:52:08;;;;;;;;;21.75;20.50;;;;;19.89;54.45;100989.72;5074508;27;45305;-72
2022/06/16 02:55:17;;;;;;;;;21.25;21.25;;;;;19.86;54.58;100988.09;5075101;28;45454;-71
2022/06/16 02:58:03;;;;;;;;;23.00;20.75;;;;;19.84;54.10;100990.91;5070682;27;46982;-71
2022/06/16 03:00:34;;;;;;;;;19.50;18.25;;;;;19.81;54.13;101001.81;5073216;28;45331;-71
2022/06/16 03:03:19;;;;;;;;;19.50;19.50;;;;;19.79;54.49;101002.88;5076712;28;45456;-69
2022/06/16 03:05:45;;;;;;;;;23.25;22.75;;;;;19.71;54.96;100996.28;5078514;27;45357;-71
2022/06/16 03:08:10;;;;;;;;;23.00;20.25;;;;;19.71;54.18;101001.59;5078361;28;46377;-70
2022/06/16 03:10:50;;;;;;;;;24.50;22.00;;;;;19.69;54.32;100998.19;5078187;28;45333;-71
2022/06/16 03:13:16;;;;;;;;;27.00;23.00;;;;;19.71;54.68;101011.44;5081541;28;45389;-70
2022/06/16 03:15:41;;;;;;;;;26.75;24.25;;;;;19.67;54.40;101010.78;5083032;27;45202;-71
2022/06/16 03:18:06;;;;;;;;;22.00;22.00;;;;;19.66;55.02;101016.25;5079056;28;46458;-70
2022/06/16 03:20:32;;;;;;;;;26.25;23.00;;;;;19.67;54.50;101009.97;5078021;28;45405;-72
2022/06/16 03:22:58;;;;;;;;;26.50;24.25;;;;;19.69;54.64;101022.22;5077993;28;45362;-72
2022/06/16 03:25:24;;;;;;;;;25.75;23.00;;;;;19.65;54.84;101018.06;5078359;27;45395;-71
2022/06/16 03:27:49;;;;;;;;;24.25;21.75;;;;;19.60;54.60;101014.00;5077852;27;46478;-72
2022/06/16 03:30:14;;;;;;;;;23.50;21.75;;;;;19.63;54.82;101021.81;5076181;28;45407;-71
2022/06/16 03:32:40;;;;;;;;;27.75;25.00;;;;;19.64;54.92;101029.69;5078013;28;45342;-72
2022/06/16 03:35:06;;;;;;;;;21.75;21.50;;;;;19.65;54.67;101027.91;5077977;28;45327;-71
2022/06/16 03:37:31;;;;;;;;;21.75;21.25;;;;;19.63;54.92;101028.00;5077912;27;45402;-73
2022/06/16 03:39:56;;;;;;;;;26.75;23.50;;;;;19.62;54.55;101030.78;5077933;27;45449;-74
2022/06/16 03:42:22;;;;;;;;;25.25;23.00;;;;;19.61;55.20;101031.72;5077991;28;45409;-72
2022/06/16 03:44:47;;;;;;;;;26.75;23.75;;;;;19.60;54.82;101030.88;5078245;27;45259;-73
2022/06/16 03:47:12;;;;;;;;;24.25;23.25;;;;;19.64;54.55;101034.19;5078240;27;45387;-72
2022/06/16 03:49:38;;;;;;;;;26.00;24.75;;;;;19.61;55.25;101032.59;5077954;28;45399;-72
2022/06/16 03:52:03;;;;;;;;;25.00;23.75;;;;;19.60;55.24;101030.88;5077981;27;45393;-73
2022/06/16 03:54:29;;;;;;;;;25.75;22.50;;;;;19.60;55.23;101024.69;5078102;27;45237;-72
2022/06/16 03:56:54;;;;;;;;;25.75;22.25;;;;;19.59;55.04;101034.50;5077476;27;45339;-73
2022/06/16 03:59:21;;;;;;;;;21.00;21.00;;;;;19.60;55.26;101036.22;5077454;28;45413;-72
2022/06/16 04:01:47;;;;;;;;;24.00;22.00;;;;;19.59;54.91;101037.19;5077598;27;45418;-72
2022/06/16 04:04:13;;;;;;;;;26.75;24.00;;;;;19.59;55.17;101047.00;5077893;27;45508;-70
2022/06/16 04:06:38;;;;;;;;;20.50;20.50;;;;;19.49;55.53;101034.31;5077143;27;45462;-71
2022/06/16 04:09:04;;;;;;;;;21.50;21.50;;;;;19.55;55.22;101049.88;5077299;27;45497;-71
2022/06/16 04:11:30;;;;;;;;;23.25;21.00;;;;;19.53;55.66;101054.47;5092825;27;45347;-70
2022/06/16 04:14:04;;;;;;;;;22.00;19.25;;;;;19.53;55.46;101049.13;5076391;27;45515;-70
2022/06/16 04:16:32;;;;;;;;;16.75;16.75;;;;;19.49;55.28;101038.81;5077124;27;46144;-72
2022/06/16 04:18:59;;;;;;;;;24.50;21.25;;;;;19.49;55.56;101044.13;5076893;27;45373;-71
2022/06/16 04:21:24;;;;;;;;;29.50;23.25;;;;;19.51;55.34;101044.88;5077148;27;45318;-69
2022/06/16 04:23:50;;;;;;;;;22.75;22.00;;;;;19.46;55.61;101037.19;5077004;27;45508;-70
2022/06/16 04:26:16;;;;;;;;;21.50;20.25;;;;;19.51;55.85;101053.72;5076720;27;45858;-71
2022/06/16 04:28:41;;;;;;;;;19.50;18.25;;;;;19.51;55.55;101050.22;5077192;27;45639;-71
2022/06/16 04:31:06;;;;;;;;;21.00;21.00;;;;;19.46;56.03;101044.34;5076974;27;45392;-71
2022/06/16 04:33:33;;;;;;;;;23.50;22.25;;;;;19.54;55.74;101064.19;5076848;28;45620;-71
2022/06/16 04:35:58;;;;;;;;;20.50;20.25;;;;;19.48;55.46;101061.09;5076735;27;45688;-71
2022/06/16 04:38:26;;;;;;;;;20.00;20.00;;;;;19.54;55.38;101074.00;5076846;27;45403;-73
2022/06/16 04:40:52;;;;;;;;;26.75;24.00;;;;;19.53;55.86;101062.47;5075284;28;45299;-70
2022/06/16 04:43:17;;;;;;;;;26.75;24.25;;;;;19.55;55.41;101063.22;5077084;28;45348;-71
2022/06/16 04:45:43;;;;;;;;;24.25;23.00;;;;;19.59;55.57;101069.19;5076965;27;45440;-70
2022/06/16 04:48:09;;;;;;;;;22.25;21.00;;;;;19.61;55.48;101072.63;5076481;27;45200;-71
2022/06/16 04:50:36;;;;;;;;;21.00;21.00;;;;;19.64;55.43;101080.41;5076788;27;45218;-72
2022/06/16 04:53:02;;;;;;;;;23.00;22.00;;;;;19.62;55.41;101077.00;5076941;27;45616;-72
2022/06/16 04:55:27;;;;;;;;;21.00;21.00;;;;;19.65;55.45;101082.09;5076750;27;45397;-72
2022/06/16 04:57:54;;;;;;;;;24.25;22.75;;;;;19.69;55.22;101088.09;5076642;27;45370;-71
2022/06/16 05:00:20;;;;;;;;;26.25;25.50;;;;;19.83;55.19;101087.09;5076785;27;45370;-71
2022/06/16 05:02:46;;;;;;;;;25.50;23.00;;;;;20.11;54.79;101074.44;5077524;27;45563;-73
2022/06/16 05:05:11;;;;;;;;;20.75;20.75;;;;;20.47;54.25;101086.09;5076546;27;45353;-72
2022/06/16 05:07:36;;;;;;;;;23.50;21.50;;;;;20.87;53.65;101096.47;5076322;27;45397;-72
2022/06/16 05:10:02;;;;;;;;;22.75;22.50;;;;;21.26;52.65;101092.72;5076131;27;45414;-72
2022/06/16 05:12:27;;;;;;;;;23.50;22.50;;;;;21.60;51.96;101088.22;5076870;27;45440;-72
2022/06/16 05:14:53;;;;;;;;;20.50;20.50;;;;;21.92;50.77;101100.06;5076102;27;45463;-73
2022/06/16 05:17:18;;;;;;;;;29.00;24.75;;;;;22.27;50.42;101107.06;5075952;28;45274;-72
2022/06/16 05:19:43;;;;;;;;;19.50;18.00;;;;;22.58;50.04;101117.13;5076647;27;45402;-72
2022/06/16 05:22:09;;;;;;;;;24.25;24.25;;;;;22.89;49.48;101118.09;5076453;27;45382;-72
2022/06/16 05:24:34;;;;;;;;;25.25;24.00;;;;;23.01;48.69;101120.72;5075856;28;45352;-72
2022/06/16 05:27:04;;;;;;;;;20.50;20.00;;;;;23.01;48.23;101120.72;5075904;27;45225;-72
2022/06/16 05:29:30;;;;;;;;;21.25;21.25;;;;;22.93;48.34;101126.75;5075934;27;45284;-72
2022/06/16 05:31:57;;;;;;;;;25.00;23.25;;;;;22.93;48.01;101139.28;5075897;27;45473;-72
2022/06/16 05:34:22;;;;;;;;;23.25;22.75;;;;;22.94;47.73;101149.03;5075688;27;45706;-74
2022/06/16 05:36:47;;;;;;;;;21.00;21.00;;;;;22.94;47.55;101149.03;5076024;28;45362;-73
2022/06/16 05:39:13;;;;;;;;;24.00;22.75;;;;;22.96;47.96;101160.50;5077194;28;45477;-73
2022/06/16 05:41:39;;;;;;;;;23.00;23.00;;;;;22.90;47.43;101154.66;5077761;27;45457;-73
2022/06/16 05:44:05;;;;;;;;;21.50;20.25;;;;;22.82;47.48;101159.81;5076309;27;45260;-72
2022/06/16 05:46:31;;;;;;;;;22.25;20.00;;;;;22.76;47.36;101171.06;5076096;28;45392;-73
2022/06/16 05:48:56;;;;;;;;;24.00;19.75;;;;;22.68;47.64;101174.34;5074871;28;45371;-73
2022/06/16 05:51:23;;;;;;;;;27.50;24.00;;;;;22.67;47.46;101175.34;5075936;28;45441;-72
2022/06/16 05:53:49;;;;;;;;;22.25;22.25;;;;;22.58;47.67;101182.31;5075569;27;46787;-72
2022/06/16 05:56:15;;;;;;;;;27.25;25.25;;;;;22.54;47.84;101177.31;5075845;27;45314;-72
2022/06/16 05:58:41;;;;;;;;;25.75;22.00;;;;;22.39;47.75;101177.56;5074202;28;45264;-73
2022/06/16 06:01:07;;;;;;;;;25.50;23.00;;;;;22.14;48.13;101162.59;5075603;27;45271;-72
2022/06/16 06:03:33;;;;;;;;;20.00;19.00;;;;;22.11;48.33;101178.94;5075157;27;46432;-73
2022/06/16 06:05:59;;;;;;;;;23.50;21.25;;;;;22.00;48.53;101180.63;5075361;28;45247;-72
2022/06/16 06:17:00;;;;;;;;;24.25;21.25;;;;;21.60;49.12;101186.41;5073990;27;45712;-71
2022/06/16 06:19:25;;;;;;;;;25.75;25.00;;;;;21.55;49.50;101181.41;5075165;27;45720;-77
2022/06/16 06:22:05;;;;;;;;;23.25;23.00;;;;;21.57;49.15;101194.69;5090893;27;45400;-70
2022/06/16 06:24:38;;;;;;;;;20.50;20.00;;;;;21.49;49.29;101197.09;5090400;27;47635;-75
2022/06/16 06:27:10;;;;;;;;;28.50;23.75;;;;;21.33;48.78;101190.25;5073533;28;45481;-76
2022/06/16 06:29:36;;;;;;;;;27.25;24.00;;;;;21.26;49.13;101197.88;5090416;27;45378;-75
2022/06/16 06:32:02;;;;;;;;;27.50;26.50;;;;;21.23;49.43;101208.81;5074850;27;45678;-70
2022/06/16 06:34:28;;;;;;;;;22.75;22.75;;;;;21.25;49.30;101214.06;5073650;28;45420;-71
2022/06/16 06:36:54;;;;;;;;;24.75;23.00;;;;;21.20;49.20;101218.88;5090244;27;45389;-72
2022/06/16 06:39:19;;;;;;;;;27.00;24.50;;;;;21.15;49.03;101221.91;5099119;27;45398;-71
2022/06/16 06:41:45;;;;;;;;;28.75;25.75;;;;;21.17;49.79;101230.69;5099175;27;45563;-70
2022/06/16 06:44:11;;;;;;;;;26.00;24.75;;;;;21.20;48.97;101221.56;5098657;27;46008;-70
2022/06/16 06:46:36;;;;;;;;;24.50;23.00;;;;;21.27;48.65;101220.16;5098697;27;45346;-72
2022/06/16 06:49:02;;;;;;;;;28.50;23.00;;;;;21.31;48.59;101230.50;5099527;27;45299;-71
2022/06/16 06:51:28;;;;;;;;;23.50;23.25;;;;;21.36;48.08;101229.28;5098085;27;45554;-71
2022/06/16 06:53:53;;;;;;;;;22.25;19.25;;;;;21.36;47.98;101224.81;5078342;27;46381;-71
2022/06/16 06:56:19;;;;;;;;;25.00;25.00;;;;;21.41;47.92;101227.13;5076979;28;45410;-71
2022/06/16 06:58:44;;;;;;;;;26.25;23.00;;;;;21.48;47.86;101231.03;5077656;27;45342;-78
2022/06/16 07:01:10;;;;;;;;;21.50;18.75;;;;;21.46;47.48;101227.63;5079192;27;45579;-80
2022/06/16 07:03:35;;;;;;;;;27.50;23.00;;;;;21.57;48.04;101227.66;5077019;28;47540;-79
2022/06/16 07:06:02;;;;;;;;;17.00;17.00;;;;;21.65;46.99;101237.81;5078200;28;45478;-80
2022/06/16 07:08:28;;;;;;;;;27.25;24.50;;;;;21.70;46.38;101229.41;5078101;28;45243;-78
2022/06/16 07:10:54;;;;;;;;;22.00;18.75;;;;;21.70;46.53;101226.72;5078425;28;45396;-76
2022/06/16 07:13:19;;;;;;;;;24.75;21.75;;;;;21.88;46.80;101241.41;5079528;27;45584;-79
2022/06/16 07:15:45;;;;;;;;;22.00;19.50;;;;;21.92;46.25;101239.31;5078361;27;45509;-79
2022/06/16 07:18:10;;;;;;;;;17.75;16.00;;;;;21.97;45.80;101250.53;5075845;28;45315;-79
2022/06/16 07:20:36;;;;;;;;;20.00;20.00;;;;;22.01;46.08;101261.84;5078822;28;45384;-79
2022/06/16 07:23:01;;;;;;;;;19.50;17.50;;;;;22.03;46.41;101258.06;5078420;28;45478;-81
2022/06/16 07:25:27;;;;;;;;;21.50;20.00;;;;;22.04;45.52;101265.13;5078097;27;45455;-79
2022/06/16 07:27:53;;;;;;;;;16.25;16.00;;;;;22.07;44.87;101260.50;5078843;28;45376;-79
2022/06/16 07:30:20;;;;;;;;;18.00;17.00;;;;;22.11;44.38;101272.69;5077025;28;45494;-78
2022/06/16 07:32:47;;;;;;;;;15.25;13.75;;;;;22.20;43.81;101277.31;5077646;28;45565;-78
2022/06/16 07:35:15;;;;;;;;;14.50;14.50;;;;;22.24;44.04;101272.59;5078317;27;45253;-80
2022/06/16 07:37:40;;;;;;;;;14.00;12.50;;;;;22.28;43.62;101271.38;5083117;28;45411;-79
2022/06/16 07:40:07;;;;;;;;;16.75;14.75;;;;;22.41;43.58;101277.47;5084111;28;45584;-80
2022/06/16 07:42:33;;;;;;;;;7.25;6.50;;;;;22.48;43.37;101277.88;5078457;27;46716;-80
2022/06/16 07:44:59;;;;;;;;;15.50;14.00;;;;;22.51;42.55;101269.59;5078331;27;45355;-80
2022/06/16 07:47:25;;;;;;;;;13.50;13.50;;;;;22.60;42.07;101279.56;5079294;28;45414;-76
2022/06/16 07:49:51;;;;;;;;;10.75;10.75;;;;;22.60;40.73;101266.16;5078218;27;45274;-82
2022/06/16 07:52:16;;;;;;;;;15.00;15.00;;;;;22.70;41.71;101273.47;5078454;27;46063;-79
2022/06/16 07:54:43;;;;;;;;;10.00;10.00;;;;;22.75;39.64;101273.94;5078669;28;45268;-79
2022/06/16 07:57:09;;;;;;;;;11.50;11.50;;;;;22.85;39.56;101279.41;5078475;27;45342;-80
2022/06/16 07:59:35;;;;;;;;;11.50;11.50;;;;;22.93;39.95;101271.59;5078769;28;45335;-79
2022/06/16 08:02:01;;;;;;;;;13.75;13.00;;;;;23.03;40.26;101272.53;5078540;27;46411;-78
2022/06/16 08:04:26;;;;;;;;;17.25;16.00;;;;;23.17;40.96;101274.06;5076889;28;45394;-79
2022/06/16 08:06:52;;;;;;;;;11.00;11.00;;;;;23.30;40.13;101273.06;5079887;28;45382;-80
2022/06/16 08:09:18;;;;;;;;;17.50;15.50;;;;;23.41;39.69;101283.78;5086293;28;45631;-78
2022/06/16 08:14:28;;;;;;;;;11.50;10.00;;;;;23.56;39.15;101278.94;5078650;28;45302;-81
2022/06/16 08:16:53;;;;;;;;;15.25;12.50;;;;;23.65;39.42;101285.38;5078383;27;45412;-81
2022/06/16 08:19:19;;;;;;;;;13.00;13.00;;;;;23.73;39.16;101282.88;5078381;27;45571;-79
2022/06/16 08:21:44;;;;;;;;;12.25;10.00;;;;;23.76;37.66;101277.25;5076079;28;46725;-81
2022/06/16 08:24:10;;;;;;;;;12.75;12.00;;;;;23.84;38.34;101289.16;5077725;27;45241;-79
2022/06/16 08:26:36;;;;;;;;;13.25;10.25;;;;;23.86;37.79;101285.38;5080850;28;45233;-78
2022/06/16 08:29:04;;;;;;;;;13.00;13.00;;;;;23.91;37.38;101276.91;5078579;28;45301;-79
2022/06/16 08:31:30;;;;;;;;;20.50;15.25;;;;;23.97;37.93;101276.38;5075804;28;48237;-78
2022/06/16 08:33:55;;;;;;;;;12.25;9.50;;;;;24.08;37.27;101270.13;5078702;27;45369;-80
2022/06/16 08:36:21;;;;;;;;;15.00;12.50;;;;;24.21;36.03;101286.00;5082952;28;45313;-79
2022/06/16 08:38:47;;;;;;;;;12.00;10.50;;;;;24.21;36.32;101281.50;5082760;28;45329;-79
2022/06/16 08:41:22;;;;;;;;;8.50;8.50;;;;;24.31;36.28;101280.69;5082251;27;46229;-81
2022/06/16 08:43:56;;;;;;;;;13.50;10.25;;;;;24.42;36.18;101288.66;5078361;27;45460;-81
2022/06/16 08:46:27;;;;;;;;;14.25;9.25;;;;;24.39;35.70;101271.94;5077079;27;45323;-79
2022/06/16 08:49:19;;;;;;;;;9.75;8.50;;;;;24.50;35.09;101290.69;5078021;27;45211;-79
2022/06/16 08:51:55;;;;;;;;;11.25;9.50;;;;;24.56;35.15;101290.13;5075451;28;47541;-78
2022/06/16 08:54:39;;;;;;;;;8.00;7.00;;;;;24.68;35.47;101300.78;5077977;27;45401;-79
2022/06/16 08:57:24;;;;;;;;;10.75;10.25;;;;;24.79;34.57;101295.31;5077985;27;45263;-77
2022/06/16 08:59:59;;;;;;;;;9.25;9.25;;;;;24.78;34.96;101286.41;5077704;27;45401;-78
2022/06/16 09:02:31;;;;;;;;;9.75;8.25;;;;;24.90;34.14;101289.81;5077385;28;47583;-79
2022/06/16 09:05:31;;;;;;;;;10.00;9.00;;;;;24.96;33.93;101290.25;5077894;28;45379;-80
2022/06/16 09:08:24;;;;;;;;;11.50;9.00;;;;;24.99;33.87;101281.91;5077518;28;45294;-79
2022/06/16 09:11:19;;;;;;;;;11.00;10.00;;;;;25.13;34.07;101286.03;5076442;28;45605;-77
2022/06/16 09:14:10;;;;;;;;;10.50;10.50;;;;;25.17;34.09;101290.16;5073350;28;45602;-78
2022/06/16 09:17:05;;;;;;;;;9.75;8.00;;;;;25.26;33.64;101288.44;5075340;28;45799;-78
2022/06/16 09:20:03;;;;;;;;;10.00;7.75;;;;;25.36;33.45;101292.84;5076848;27;45300;-77
2022/06/16 09:22:38;;;;;;;;;8.00;8.00;;;;;25.43;32.79;101289.59;5075970;27;45252;-81
2022/06/16 09:25:34;;;;;;;;;11.50;9.00;;;;;25.36;33.11;101268.63;5076898;28;46653;-80
2022/06/16 09:28:09;;;;;;;;;8.00;8.00;;;;;25.63;32.41;101298.56;5077130;27;45402;-80
2022/06/16 09:30:40;;;;;;;;;8.25;8.25;;;;;25.72;32.44;101294.13;5075176;28;45230;-81
2022/06/16 09:33:11;;;;;;;;;8.00;8.00;;;;;25.81;31.08;101291.44;5076767;27;45292;-80
2022/06/16 09:35:48;;;;;;;;;10.00;9.25;;;;;25.85;32.54;101293.84;5077027;27;46529;-81
2022/06/16 09:38:18;;;;;;;;;9.75;8.25;;;;;25.95;31.84;101300.06;5077382;27;45410;-79
2022/06/16 09:40:51;;;;;;;;;12.25;11.00;;;;;26.03;32.03;101296.66;5078622;28;45238;-82
2022/06/16 09:43:32;;;;;;;;;9.75;7.00;;;;;26.15;31.68;101298.19;5079171;27;45358;-81
2022/06/16 09:46:09;;;;;;;;;9.25;8.25;;;;;26.21;31.01;101303.00;5077491;27;46533;-79
2022/06/16 09:48:46;;;;;;;;;8.00;8.00;;;;;26.25;31.53;101293.63;5076339;27;45343;-79
2022/06/16 09:51:21;;;;;;;;;10.25;10.25;;;;;26.22;29.51;101287.66;5076708;28;45362;-81
2022/06/16 09:53:49;;;;;;;;;9.75;9.25;;;;;26.22;30.80;101282.25;5077155;28;45427;-81
2022/06/16 09:56:23;;;;;;;;;7.75;7.75;;;;;26.34;30.24;101272.16;5077514;28;45486;-81
2022/06/16 09:58:57;;;;;;;;;16.25;14.25;;;;;26.38;30.47;101263.59;5077992;28;45344;-81
2022/06/16 10:01:27;;;;;;;;;12.00;12.00;;;;;26.43;30.24;101275.78;5077119;27;44767;-82
2022/06/16 10:03:57;;;;;;;;;9.75;9.75;;;;;26.34;30.94;101254.09;5077033;27;45482;-80
2022/06/16 10:06:40;;;;;;;;;15.00;13.00;;;;;26.54;30.59;101276.44;5076991;28;45671;-80
2022/06/16 10:09:36;;;;;;;;;9.50;9.00;;;;;26.56;30.82;101262.81;5076362;28;45436;-81
2022/06/16 10:12:11;;;;;;;;;9.75;9.75;;;;;26.66;31.01;101263.63;5074336;28;45454;-80
2022/06/16 10:14:53;;;;;;;;;9.00;9.00;;;;;26.77;30.08;101272.50;5076467;28;45396;-81
2022/06/16 10:17:23;;;;;;;;;10.50;10.00;;;;;26.82;30.15;101267.50;5076285;27;46317;-81
2022/06/16 10:19:51;;;;;;;;;10.75;10.75;;;;;26.89;30.48;101262.34;5077094;28;45364;-81
2022/06/16 10:22:20;;;;;;;;;12.50;11.50;;;;;26.69;30.36;101224.69;5081767;28;45310;-80
2022/06/16 10:25:30;;;;;;;;;12.00;12.00;;;;;26.73;30.32;101223.38;5081552;27;45482;-81
2022/06/16 10:28:14;;;;;;;;;15.25;11.25;;;;;26.98;30.38;101278.50;5082148;28;46476;-81
2022/06/16 10:30:39;;;;;;;;;12.50;12.50;;;;;27.03;29.73;101279.88;5080865;27;45346;-80
2022/06/16 10:33:09;;;;;;;;;10.75;10.75;;;;;27.07;30.01;101270.47;5082007;27;45326;-79
2022/06/16 10:35:36;;;;;;;;;16.00;11.50;;;;;27.02;30.45;101256.59;5082900;28;45405;-80
2022/06/16 10:38:02;;;;;;;;;10.25;10.25;;;;;27.23;30.20;101272.50;5086719;27;46174;-81
2022/06/16 10:40:37;;;;;;;;;11.00;10.75;;;;;27.35;29.37;101273.09;5081087;27;45401;-82
2022/06/16 10:43:11;;;;;;;;;33.00;30.50;;;;;27.48;29.32;101267.28;5079647;27;45445;-80
2022/06/16 10:45:38;;;;;;;;;15.00;12.00;;;;;27.42;29.70;101252.53;5079245;27;45444;-82
2022/06/16 10:48:24;;;;;;;;;9.25;9.25;;;;;27.56;30.10;101270.94;5079517;27;45430;-77
2022/06/16 10:51:15;;;;;;;;;14.75;13.00;;;;;27.56;29.45;101260.13;5078538;27;45243;-82
2022/06/16 10:53:46;;;;;;;;;8.25;8.00;;;;;27.64;29.92;101253.94;5078207;28;45322;-78
2022/06/16 10:56:22;;;;;;;;;20.00;20.00;;;;;27.72;30.24;101263.97;5077709;28;45497;-79
2022/06/16 10:58:56;;;;;;;;;5.50;4.75;;;;;27.72;29.26;101266.69;5078494;27;45349;-79
2022/06/16 11:01:45;;;;;;;;;15.75;14.25;;;;;27.72;29.87;101263.09;5077596;28;45251;-81
2022/06/16 11:04:18;;;;;;;;;12.00;12.00;;;;;27.77;29.37;101258.94;5077658;27;45340;-80
2022/06/16 11:06:52;;;;;;;;;11.75;10.00;;;;;27.85;29.04;101259.00;5077642;27;45298;-81
2022/06/16 11:09:25;;;;;;;;;10.75;10.50;;;;;27.85;28.68;101266.22;5077296;27;46273;-79
2022/06/16 11:11:57;;;;;;;;;13.00;13.00;;;;;27.95;29.16;101258.84;5076453;27;45322;-80
2022/06/16 11:14:38;;;;;;;;;13.00;12.25;;;;;28.05;28.84;101258.75;5076821;27;45229;-81
2022/06/16 11:17:11;;;;;;;;;16.00;16.00;;;;;28.00;27.89;101261.94;5077711;27;45338;-81
2022/06/16 11:19:44;;;;;;;;;7.50;7.50;;;;;27.97;28.16;101258.72;5076435;28;46537;-77
2022/06/16 11:22:26;;;;;;;;;10.25;9.25;;;;;27.95;28.36;101264.25;5074761;28;45297;-79
2022/06/16 11:25:19;;;;;;;;;13.50;11.50;;;;;27.97;27.49;101273.06;5079233;27;45312;-81
2022/06/16 11:28:00;;;;;;;;;11.75;11.75;;;;;28.03;28.15;101266.19;5079399;27;45436;-81
2022/06/16 11:30:38;;;;;;;;;12.00;12.00;;;;;28.14;28.04;101273.22;5078775;27;46112;-80
2022/06/16 11:33:05;;;;;;;;;20.75;18.25;;;;;28.21;27.60;101268.00;5079495;27;45412;-80
2022/06/16 11:35:55;;;;;;;;;10.25;10.25;;;;;28.18;27.19;101263.78;5080496;27;45331;-79
2022/06/16 11:38:33;;;;;;;;;9.00;9.00;;;;;28.12;26.51;101269.78;5079626;28;45273;-78
2022/06/16 11:41:07;;;;;;;;;12.25;9.25;;;;;28.20;26.61;101269.88;5079263;27;45472;-80
2022/06/16 11:43:49;;;;;;;;;3.00;2.00;;;;;28.25;27.41;101270.22;5080311;27;45421;-80
2022/06/16 11:46:26;;;;;;;;;15.00;14.00;;;;;28.26;27.70;101266.50;5080485;27;45340;-80
2022/06/16 11:49:35;;;;;;;;;10.50;10.50;;;;;28.20;27.30;101245.53;5081511;27;45346;-81
2022/06/16 11:52:17;;;;;;;;;10.25;10.25;;;;;28.36;26.96;101273.66;5080832;27;45384;-79